sensor_id;sensor_type;location;lat;lon;timestamp;P1;durP1;ratioP1;P2;durP2;ratioP2
22965;SDS011;11649;48.090;9.754;2023-06-10T00:02:21;89.30;;;83.22;;
22965;SDS011;11649;48.090;9.754;2023-06-10T00:04:48;93.22;;;86.95;;
22965;SDS011;11649;48.090;9.754;2023-06-10T00:07:15;85.00;;;79.03;;
22965;SDS011;11649;48.090;9.754;2023-06-10T00:09:42;86.13;;;80.00;;
22965;SDS011;11649;48.090;9.754;2023-06-10T00:12:09;78.57;;;73.32;;
22965;SDS011;11649;48.090;9.754;2023-06-10T00:14:37;77.72;;;72.07;;
22965;SDS011;11649;48.090;9.754;2023-06-10T00:17:05;69.15;;;64.13;;
22965;SDS011;11649;48.090;9.754;2023-06-10T00:19:36;75.50;;;70.45;;
22965;SDS011;11649;48.090;9.754;2023-06-10T00:22:08;71.35;;;66.38;;
22965;SDS011;11649;48.090;9.754;2023-06-10T00:24:37;78.68;;;73.38;;
22965;SDS011;11649;48.090;9.754;2023-06-10T00:27:04;79.93;;;74.55;;
22965;SDS011;11649;48.090;9.754;2023-06-10T00:29:33;77.97;;;72.70;;
22965;SDS011;11649;48.090;9.754;2023-06-10T00:32:00;82.50;;;76.85;;
22965;SDS011;11649;48.090;9.754;2023-06-10T00:34:27;74.50;;;69.25;;
22965;SDS011;11649;48.090;9.754;2023-06-10T00:36:54;68.40;;;63.55;;
22965;SDS011;11649;48.090;9.754;2023-06-10T00:39:21;70.93;;;66.07;;
22965;SDS011;11649;48.090;9.754;2023-06-10T00:41:48;77.57;;;72.15;;
22965;SDS011;11649;48.090;9.754;2023-06-10T00:44:16;72.63;;;67.57;;
22965;SDS011;11649;48.090;9.754;2023-06-10T00:46:43;72.95;;;67.85;;
22965;SDS011;11649;48.090;9.754;2023-06-10T00:49:10;68.30;;;63.58;;
22965;SDS011;11649;48.090;9.754;2023-06-10T00:51:37;74.88;;;69.82;;
22965;SDS011;11649;48.090;9.754;2023-06-10T00:54:05;67.15;;;62.17;;
22965;SDS011;11649;48.090;9.754;2023-06-10T00:56:33;68.13;;;63.10;;
22965;SDS011;11649;48.090;9.754;2023-06-10T00:59:01;80.53;;;74.82;;
22965;SDS011;11649;48.090;9.754;2023-06-10T01:01:28;76.53;;;71.18;;
22965;SDS011;11649;48.090;9.754;2023-06-10T01:03:56;70.45;;;65.63;;
22965;SDS011;11649;48.090;9.754;2023-06-10T01:09:18;70.18;;;65.35;;
22965;SDS011;11649;48.090;9.754;2023-06-10T01:11:57;79.18;;;73.85;;
22965;SDS011;11649;48.090;9.754;2023-06-10T01:14:35;72.25;;;67.28;;
22965;SDS011;11649;48.090;9.754;2023-06-10T01:17:02;76.90;;;71.57;;
22965;SDS011;11649;48.090;9.754;2023-06-10T01:19:29;75.25;;;70.05;;
22965;SDS011;11649;48.090;9.754;2023-06-10T01:21:57;74.43;;;69.28;;
22965;SDS011;11649;48.090;9.754;2023-06-10T01:24:26;78.80;;;73.45;;
22965;SDS011;11649;48.090;9.754;2023-06-10T01:26:55;81.15;;;75.65;;
22965;SDS011;11649;48.090;9.754;2023-06-10T01:29:36;82.40;;;76.88;;
22965;SDS011;11649;48.090;9.754;2023-06-10T01:32:13;76.07;;;70.82;;
22965;SDS011;11649;48.090;9.754;2023-06-10T01:34:44;82.95;;;77.25;;
22965;SDS011;11649;48.090;9.754;2023-06-10T01:37:12;76.75;;;71.43;;
22965;SDS011;11649;48.090;9.754;2023-06-10T01:39:42;74.47;;;69.25;;
22965;SDS011;11649;48.090;9.754;2023-06-10T01:42:10;74.75;;;69.35;;
22965;SDS011;11649;48.090;9.754;2023-06-10T01:44:38;80.28;;;74.63;;
22965;SDS011;11649;48.090;9.754;2023-06-10T01:47:06;71.13;;;66.15;;
22965;SDS011;11649;48.090;9.754;2023-06-10T01:49:32;73.20;;;68.20;;
22965;SDS011;11649;48.090;9.754;2023-06-10T01:51:59;83.40;;;77.82;;
22965;SDS011;11649;48.090;9.754;2023-06-10T01:54:26;73.82;;;68.68;;
22965;SDS011;11649;48.090;9.754;2023-06-10T01:56:53;85.60;;;79.85;;
22965;SDS011;11649;48.090;9.754;2023-06-10T01:59:20;84.85;;;79.22;;
22965;SDS011;11649;48.090;9.754;2023-06-10T02:01:47;83.40;;;77.50;;
22965;SDS011;11649;48.090;9.754;2023-06-10T02:04:14;78.70;;;73.30;;
22965;SDS011;11649;48.090;9.754;2023-06-10T02:06:40;79.13;;;73.65;;
22965;SDS011;11649;48.090;9.754;2023-06-10T02:09:07;71.13;;;66.28;;
22965;SDS011;11649;48.090;9.754;2023-06-10T02:11:34;68.32;;;63.65;;
22965;SDS011;11649;48.090;9.754;2023-06-10T02:14:01;67.03;;;62.25;;
22965;SDS011;11649;48.090;9.754;2023-06-10T02:16:28;70.00;;;65.13;;
22965;SDS011;11649;48.090;9.754;2023-06-10T02:18:55;70.28;;;65.25;;
22965;SDS011;11649;48.090;9.754;2023-06-10T02:21:22;60.15;;;55.88;;
22965;SDS011;11649;48.090;9.754;2023-06-10T02:23:49;64.82;;;60.22;;
22965;SDS011;11649;48.090;9.754;2023-06-10T02:26:16;79.72;;;74.07;;
22965;SDS011;11649;48.090;9.754;2023-06-10T02:28:43;73.82;;;68.57;;
22965;SDS011;11649;48.090;9.754;2023-06-10T02:31:10;70.63;;;65.70;;
22965;SDS011;11649;48.090;9.754;2023-06-10T02:33:37;75.30;;;70.00;;
22965;SDS011;11649;48.090;9.754;2023-06-10T02:36:06;76.97;;;71.70;;
22965;SDS011;11649;48.090;9.754;2023-06-10T02:38:33;76.15;;;70.95;;
22965;SDS011;11649;48.090;9.754;2023-06-10T02:41:00;76.63;;;71.07;;
22965;SDS011;11649;48.090;9.754;2023-06-10T02:43:27;73.10;;;67.97;;
22965;SDS011;11649;48.090;9.754;2023-06-10T02:45:54;69.88;;;64.93;;
22965;SDS011;11649;48.090;9.754;2023-06-10T02:48:23;74.40;;;69.25;;
22965;SDS011;11649;48.090;9.754;2023-06-10T02:50:50;73.30;;;67.95;;
22965;SDS011;11649;48.090;9.754;2023-06-10T02:53:18;77.90;;;72.55;;
22965;SDS011;11649;48.090;9.754;2023-06-10T02:55:45;75.90;;;70.57;;
22965;SDS011;11649;48.090;9.754;2023-06-10T02:58:11;86.60;;;80.45;;
22965;SDS011;11649;48.090;9.754;2023-06-10T03:00:38;83.65;;;77.80;;
22965;SDS011;11649;48.090;9.754;2023-06-10T03:03:07;77.35;;;72.00;;
22965;SDS011;11649;48.090;9.754;2023-06-10T03:05:34;83.72;;;77.97;;
22965;SDS011;11649;48.090;9.754;2023-06-10T03:08:01;73.45;;;68.15;;
22965;SDS011;11649;48.090;9.754;2023-06-10T03:10:28;67.70;;;62.90;;
22965;SDS011;11649;48.090;9.754;2023-06-10T03:12:55;68.63;;;63.85;;
22965;SDS011;11649;48.090;9.754;2023-06-10T03:15:21;68.88;;;64.05;;
22965;SDS011;11649;48.090;9.754;2023-06-10T03:17:48;65.72;;;61.20;;
22965;SDS011;11649;48.090;9.754;2023-06-10T03:20:16;72.15;;;67.18;;
22965;SDS011;11649;48.090;9.754;2023-06-10T03:22:43;75.32;;;70.05;;
22965;SDS011;11649;48.090;9.754;2023-06-10T03:25:09;73.22;;;68.13;;
22965;SDS011;11649;48.090;9.754;2023-06-10T03:27:41;65.32;;;60.80;;
22965;SDS011;11649;48.090;9.754;2023-06-10T03:30:09;70.60;;;65.57;;
22965;SDS011;11649;48.090;9.754;2023-06-10T03:32:36;64.35;;;59.90;;
22965;SDS011;11649;48.090;9.754;2023-06-10T03:35:03;65.03;;;60.53;;
22965;SDS011;11649;48.090;9.754;2023-06-10T03:37:31;70.78;;;65.78;;
22965;SDS011;11649;48.090;9.754;2023-06-10T03:39:58;75.20;;;70.05;;
22965;SDS011;11649;48.090;9.754;2023-06-10T03:42:25;69.03;;;64.15;;
22965;SDS011;11649;48.090;9.754;2023-06-10T03:44:52;70.68;;;65.72;;
22965;SDS011;11649;48.090;9.754;2023-06-10T03:47:19;68.75;;;63.97;;
22965;SDS011;11649;48.090;9.754;2023-06-10T03:49:45;70.05;;;65.10;;
22965;SDS011;11649;48.090;9.754;2023-06-10T03:52:12;70.75;;;65.72;;
22965;SDS011;11649;48.090;9.754;2023-06-10T03:54:39;68.25;;;63.53;;
22965;SDS011;11649;48.090;9.754;2023-06-10T03:57:06;74.82;;;69.60;;
22965;SDS011;11649;48.090;9.754;2023-06-10T03:59:33;65.38;;;60.78;;
22965;SDS011;11649;48.090;9.754;2023-06-10T04:01:59;71.72;;;66.50;;
22965;SDS011;11649;48.090;9.754;2023-06-10T04:04:27;73.43;;;68.45;;
22965;SDS011;11649;48.090;9.754;2023-06-10T04:06:54;80.47;;;74.93;;
22965;SDS011;11649;48.090;9.754;2023-06-10T04:09:21;78.22;;;72.82;;
22965;SDS011;11649;48.090;9.754;2023-06-10T04:11:48;84.32;;;78.60;;
22965;SDS011;11649;48.090;9.754;2023-06-10T04:14:15;86.40;;;80.53;;
22965;SDS011;11649;48.090;9.754;2023-06-10T04:16:41;78.18;;;72.63;;
22965;SDS011;11649;48.090;9.754;2023-06-10T04:19:09;78.45;;;72.95;;
22965;SDS011;11649;48.090;9.754;2023-06-10T04:21:36;73.93;;;68.80;;
22965;SDS011;11649;48.090;9.754;2023-06-10T04:24:03;69.97;;;65.10;;
22965;SDS011;11649;48.090;9.754;2023-06-10T04:26:30;85.28;;;79.45;;
22965;SDS011;11649;48.090;9.754;2023-06-10T04:28:57;85.78;;;79.93;;
22965;SDS011;11649;48.090;9.754;2023-06-10T04:31:24;95.53;;;89.13;;
22965;SDS011;11649;48.090;9.754;2023-06-10T04:33:51;101.72;;;94.60;;
22965;SDS011;11649;48.090;9.754;2023-06-10T04:36:17;94.43;;;87.97;;
22965;SDS011;11649;48.090;9.754;2023-06-10T04:38:44;93.78;;;87.28;;
22965;SDS011;11649;48.090;9.754;2023-06-10T04:41:12;91.22;;;85.15;;
22965;SDS011;11649;48.090;9.754;2023-06-10T04:43:39;98.65;;;92.07;;
22965;SDS011;11649;48.090;9.754;2023-06-10T04:46:06;99.90;;;93.18;;
22965;SDS011;11649;48.090;9.754;2023-06-10T04:48:34;95.13;;;88.75;;
22965;SDS011;11649;48.090;9.754;2023-06-10T04:51:02;100.00;;;93.22;;
22965;SDS011;11649;48.090;9.754;2023-06-10T04:53:29;98.82;;;92.15;;
22965;SDS011;11649;48.090;9.754;2023-06-10T04:55:56;103.57;;;96.68;;
22965;SDS011;11649;48.090;9.754;2023-06-10T04:58:23;104.28;;;97.07;;
22965;SDS011;11649;48.090;9.754;2023-06-10T05:00:50;93.25;;;86.97;;
22965;SDS011;11649;48.090;9.754;2023-06-10T05:03:17;95.75;;;89.10;;
22965;SDS011;11649;48.090;9.754;2023-06-10T05:05:44;103.53;;;96.70;;
22965;SDS011;11649;48.090;9.754;2023-06-10T05:08:24;99.97;;;93.22;;
22965;SDS011;11649;48.090;9.754;2023-06-10T05:10:51;105.20;;;98.15;;
22965;SDS011;11649;48.090;9.754;2023-06-10T05:13:18;96.82;;;90.20;;
22965;SDS011;11649;48.090;9.754;2023-06-10T05:15:45;100.97;;;94.22;;
22965;SDS011;11649;48.090;9.754;2023-06-10T05:18:12;97.30;;;90.60;;
22965;SDS011;11649;48.090;9.754;2023-06-10T05:20:39;97.82;;;90.95;;
22965;SDS011;11649;48.090;9.754;2023-06-10T05:23:06;92.68;;;86.38;;
22965;SDS011;11649;48.090;9.754;2023-06-10T05:25:33;92.75;;;86.47;;
22965;SDS011;11649;48.090;9.754;2023-06-10T05:28:00;96.60;;;90.00;;
22965;SDS011;11649;48.090;9.754;2023-06-10T05:30:27;96.85;;;90.22;;
22965;SDS011;11649;48.090;9.754;2023-06-10T05:32:54;91.28;;;85.15;;
22965;SDS011;11649;48.090;9.754;2023-06-10T05:35:22;86.72;;;80.72;;
22965;SDS011;11649;48.090;9.754;2023-06-10T05:37:49;85.38;;;79.60;;
22965;SDS011;11649;48.090;9.754;2023-06-10T05:40:16;90.43;;;84.18;;
22965;SDS011;11649;48.090;9.754;2023-06-10T05:42:43;94.20;;;87.72;;
22965;SDS011;11649;48.090;9.754;2023-06-10T05:45:10;93.22;;;86.80;;
22965;SDS011;11649;48.090;9.754;2023-06-10T05:47:37;87.93;;;81.90;;
22965;SDS011;11649;48.090;9.754;2023-06-10T05:50:04;91.85;;;85.68;;
22965;SDS011;11649;48.090;9.754;2023-06-10T05:52:35;90.55;;;84.40;;
22965;SDS011;11649;48.090;9.754;2023-06-10T05:55:02;89.30;;;83.30;;
22965;SDS011;11649;48.090;9.754;2023-06-10T05:57:29;89.25;;;83.05;;
22965;SDS011;11649;48.090;9.754;2023-06-10T05:59:56;85.30;;;79.40;;
22965;SDS011;11649;48.090;9.754;2023-06-10T06:02:23;88.88;;;82.65;;
22965;SDS011;11649;48.090;9.754;2023-06-10T06:04:50;92.00;;;85.72;;
22965;SDS011;11649;48.090;9.754;2023-06-10T06:07:17;84.80;;;78.93;;
22965;SDS011;11649;48.090;9.754;2023-06-10T06:09:47;88.72;;;82.60;;
22965;SDS011;11649;48.090;9.754;2023-06-10T06:12:14;81.20;;;75.50;;
22965;SDS011;11649;48.090;9.754;2023-06-10T06:14:41;82.18;;;76.53;;
22965;SDS011;11649;48.090;9.754;2023-06-10T06:17:07;87.93;;;81.88;;
22965;SDS011;11649;48.090;9.754;2023-06-10T06:19:34;82.63;;;76.93;;
22965;SDS011;11649;48.090;9.754;2023-06-10T06:22:01;77.75;;;72.22;;
22965;SDS011;11649;48.090;9.754;2023-06-10T06:24:28;83.43;;;77.47;;
22965;SDS011;11649;48.090;9.754;2023-06-10T06:26:55;78.47;;;72.97;;
22965;SDS011;11649;48.090;9.754;2023-06-10T06:29:22;81.55;;;76.00;;
22965;SDS011;11649;48.090;9.754;2023-06-10T06:31:49;82.93;;;77.18;;
22965;SDS011;11649;48.090;9.754;2023-06-10T06:34:16;80.13;;;74.50;;
22965;SDS011;11649;48.090;9.754;2023-06-10T06:36:43;78.80;;;73.35;;
22965;SDS011;11649;48.090;9.754;2023-06-10T06:39:10;73.65;;;68.32;;
22965;SDS011;11649;48.090;9.754;2023-06-10T06:41:36;76.65;;;71.10;;
22965;SDS011;11649;48.090;9.754;2023-06-10T06:44:03;73.90;;;68.82;;
22965;SDS011;11649;48.090;9.754;2023-06-10T06:46:30;75.93;;;70.57;;
22965;SDS011;11649;48.090;9.754;2023-06-10T06:48:57;67.63;;;62.90;;
22965;SDS011;11649;48.090;9.754;2023-06-10T06:51:24;63.35;;;58.80;;
22965;SDS011;11649;48.090;9.754;2023-06-10T06:53:51;59.08;;;54.92;;
22965;SDS011;11649;48.090;9.754;2023-06-10T06:56:21;61.33;;;56.90;;
22965;SDS011;11649;48.090;9.754;2023-06-10T06:58:47;57.90;;;53.72;;
22965;SDS011;11649;48.090;9.754;2023-06-10T07:01:14;55.17;;;51.10;;
22965;SDS011;11649;48.090;9.754;2023-06-10T07:03:41;58.15;;;54.00;;
22965;SDS011;11649;48.090;9.754;2023-06-10T07:06:08;58.70;;;54.17;;
22965;SDS011;11649;48.090;9.754;2023-06-10T07:08:35;58.42;;;54.28;;
22965;SDS011;11649;48.090;9.754;2023-06-10T07:11:02;51.03;;;47.25;;
22965;SDS011;11649;48.090;9.754;2023-06-10T07:13:29;49.45;;;45.55;;
22965;SDS011;11649;48.090;9.754;2023-06-10T07:15:56;49.33;;;45.58;;
22965;SDS011;11649;48.090;9.754;2023-06-10T07:18:22;48.97;;;45.42;;
22965;SDS011;11649;48.090;9.754;2023-06-10T07:20:49;45.38;;;42.17;;
22965;SDS011;11649;48.090;9.754;2023-06-10T07:23:16;44.67;;;41.47;;
22965;SDS011;11649;48.090;9.754;2023-06-10T07:25:43;45.53;;;42.28;;
22965;SDS011;11649;48.090;9.754;2023-06-10T07:28:10;47.75;;;44.25;;
22965;SDS011;11649;48.090;9.754;2023-06-10T07:30:36;46.00;;;42.55;;
22965;SDS011;11649;48.090;9.754;2023-06-10T07:33:03;37.78;;;35.08;;
22965;SDS011;11649;48.090;9.754;2023-06-10T07:35:32;35.28;;;32.60;;
22965;SDS011;11649;48.090;9.754;2023-06-10T07:37:58;34.55;;;32.08;;
22965;SDS011;11649;48.090;9.754;2023-06-10T07:40:25;34.47;;;31.88;;
22965;SDS011;11649;48.090;9.754;2023-06-10T07:42:52;38.10;;;35.38;;
22965;SDS011;11649;48.090;9.754;2023-06-10T07:45:19;37.65;;;35.00;;
22965;SDS011;11649;48.090;9.754;2023-06-10T07:47:46;38.67;;;35.88;;
22965;SDS011;11649;48.090;9.754;2023-06-10T07:50:12;30.67;;;28.40;;
22965;SDS011;11649;48.090;9.754;2023-06-10T07:52:39;30.05;;;27.73;;
22965;SDS011;11649;48.090;9.754;2023-06-10T07:55:06;25.10;;;23.00;;
22965;SDS011;11649;48.090;9.754;2023-06-10T07:57:34;24.70;;;22.77;;
22965;SDS011;11649;48.090;9.754;2023-06-10T08:00:02;22.70;;;20.83;;
22965;SDS011;11649;48.090;9.754;2023-06-10T08:02:30;23.45;;;21.67;;
22965;SDS011;11649;48.090;9.754;2023-06-10T08:04:57;24.23;;;22.33;;
22965;SDS011;11649;48.090;9.754;2023-06-10T08:07:24;22.10;;;20.35;;
22965;SDS011;11649;48.090;9.754;2023-06-10T08:09:51;18.55;;;17.00;;
22965;SDS011;11649;48.090;9.754;2023-06-10T08:12:18;20.23;;;18.67;;
22965;SDS011;11649;48.090;9.754;2023-06-10T08:14:46;19.98;;;18.33;;
22965;SDS011;11649;48.090;9.754;2023-06-10T08:17:13;21.45;;;19.70;;
22965;SDS011;11649;48.090;9.754;2023-06-10T08:19:40;18.55;;;17.05;;
22965;SDS011;11649;48.090;9.754;2023-06-10T08:22:06;16.65;;;15.27;;
22965;SDS011;11649;48.090;9.754;2023-06-10T08:24:33;17.55;;;16.13;;
22965;SDS011;11649;48.090;9.754;2023-06-10T08:27:00;15.30;;;14.10;;
22965;SDS011;11649;48.090;9.754;2023-06-10T08:29:27;16.60;;;15.15;;
22965;SDS011;11649;48.090;9.754;2023-06-10T08:31:53;15.90;;;14.63;;
22965;SDS011;11649;48.090;9.754;2023-06-10T08:34:20;16.95;;;15.68;;
22965;SDS011;11649;48.090;9.754;2023-06-10T08:36:47;16.85;;;15.48;;
22965;SDS011;11649;48.090;9.754;2023-06-10T08:39:19;14.85;;;13.65;;
22965;SDS011;11649;48.090;9.754;2023-06-10T08:41:49;15.82;;;14.43;;
22965;SDS011;11649;48.090;9.754;2023-06-10T08:44:30;17.00;;;15.57;;
22965;SDS011;11649;48.090;9.754;2023-06-10T08:47:01;14.65;;;13.48;;
22965;SDS011;11649;48.090;9.754;2023-06-10T08:49:35;15.43;;;14.23;;
22965;SDS011;11649;48.090;9.754;2023-06-10T08:52:06;14.65;;;13.40;;
22965;SDS011;11649;48.090;9.754;2023-06-10T08:54:33;14.55;;;13.35;;
22965;SDS011;11649;48.090;9.754;2023-06-10T08:57:05;15.20;;;13.88;;
22965;SDS011;11649;48.090;9.754;2023-06-10T08:59:32;14.13;;;13.02;;
22965;SDS011;11649;48.090;9.754;2023-06-10T09:01:59;14.40;;;13.27;;
22965;SDS011;11649;48.090;9.754;2023-06-10T09:04:28;13.90;;;12.70;;
22965;SDS011;11649;48.090;9.754;2023-06-10T09:06:56;13.95;;;12.85;;
22965;SDS011;11649;48.090;9.754;2023-06-10T09:09:23;13.82;;;12.73;;
22965;SDS011;11649;48.090;9.754;2023-06-10T09:11:53;14.77;;;13.43;;
22965;SDS011;11649;48.090;9.754;2023-06-10T09:14:20;13.63;;;12.52;;
22965;SDS011;11649;48.090;9.754;2023-06-10T09:16:46;13.98;;;12.88;;
22965;SDS011;11649;48.090;9.754;2023-06-10T09:19:15;12.77;;;11.68;;
22965;SDS011;11649;48.090;9.754;2023-06-10T09:21:43;12.55;;;11.32;;
22965;SDS011;11649;48.090;9.754;2023-06-10T09:24:09;12.57;;;11.48;;
22965;SDS011;11649;48.090;9.754;2023-06-10T09:26:36;13.30;;;12.10;;
22965;SDS011;11649;48.090;9.754;2023-06-10T09:29:04;12.65;;;11.65;;
22965;SDS011;11649;48.090;9.754;2023-06-10T09:31:33;14.40;;;13.20;;
22965;SDS011;11649;48.090;9.754;2023-06-10T09:34:06;13.65;;;12.55;;
22965;SDS011;11649;48.090;9.754;2023-06-10T09:36:34;13.13;;;12.00;;
22965;SDS011;11649;48.090;9.754;2023-06-10T09:39:02;13.95;;;12.80;;
22965;SDS011;11649;48.090;9.754;2023-06-10T09:41:33;13.00;;;11.85;;
22965;SDS011;11649;48.090;9.754;2023-06-10T09:44:01;12.40;;;11.40;;
22965;SDS011;11649;48.090;9.754;2023-06-10T09:46:35;12.65;;;11.65;;
22965;SDS011;11649;48.090;9.754;2023-06-10T09:49:02;12.43;;;11.50;;
22965;SDS011;11649;48.090;9.754;2023-06-10T09:51:29;12.30;;;11.30;;
22965;SDS011;11649;48.090;9.754;2023-06-10T09:53:55;13.00;;;11.82;;
22965;SDS011;11649;48.090;9.754;2023-06-10T09:56:31;12.70;;;11.70;;
22965;SDS011;11649;48.090;9.754;2023-06-10T09:59:00;12.48;;;11.48;;
22965;SDS011;11649;48.090;9.754;2023-06-10T10:01:27;11.65;;;10.70;;
22965;SDS011;11649;48.090;9.754;2023-06-10T10:03:54;12.23;;;11.32;;
22965;SDS011;11649;48.090;9.754;2023-06-10T10:06:21;13.65;;;12.65;;
22965;SDS011;11649;48.090;9.754;2023-06-10T10:08:48;12.80;;;11.80;;
22965;SDS011;11649;48.090;9.754;2023-06-10T10:11:17;11.77;;;10.93;;
22965;SDS011;11649;48.090;9.754;2023-06-10T10:13:46;12.07;;;11.07;;
22965;SDS011;11649;48.090;9.754;2023-06-10T10:16:16;11.52;;;10.40;;
22965;SDS011;11649;48.090;9.754;2023-06-10T10:18:51;11.20;;;10.40;;
22965;SDS011;11649;48.090;9.754;2023-06-10T10:21:26;11.43;;;10.52;;
22965;SDS011;11649;48.090;9.754;2023-06-10T10:26:27;13.38;;;12.38;;
22965;SDS011;11649;48.090;9.754;2023-06-10T10:29:23;12.80;;;11.82;;
22965;SDS011;11649;48.090;9.754;2023-06-10T10:32:02;13.38;;;12.38;;
22965;SDS011;11649;48.090;9.754;2023-06-10T10:35:33;11.80;;;10.90;;
22965;SDS011;11649;48.090;9.754;2023-06-10T10:37:28;12.15;;;11.18;;
22965;SDS011;11649;48.090;9.754;2023-06-10T10:39:55;14.35;;;13.35;;
22965;SDS011;11649;48.090;9.754;2023-06-10T10:42:23;13.88;;;12.77;;
22965;SDS011;11649;48.090;9.754;2023-06-10T10:44:51;12.40;;;11.48;;
22965;SDS011;11649;48.090;9.754;2023-06-10T10:47:21;10.95;;;10.18;;
22965;SDS011;11649;48.090;9.754;2023-06-10T10:49:49;11.80;;;10.90;;
22965;SDS011;11649;48.090;9.754;2023-06-10T10:52:25;11.13;;;10.07;;
22965;SDS011;11649;48.090;9.754;2023-06-10T10:54:54;9.88;;;8.88;;
22965;SDS011;11649;48.090;9.754;2023-06-10T10:57:22;10.27;;;9.50;;
22965;SDS011;11649;48.090;9.754;2023-06-10T10:59:56;13.85;;;11.00;;
22965;SDS011;11649;48.090;9.754;2023-06-10T11:04:58;10.32;;;8.70;;
22965;SDS011;11649;48.090;9.754;2023-06-10T11:07:26;12.90;;;11.95;;
22965;SDS011;11649;48.090;9.754;2023-06-10T11:09:57;9.75;;;8.95;;
22965;SDS011;11649;48.090;9.754;2023-06-10T11:13:02;10.07;;;9.38;;
22965;SDS011;11649;48.090;9.754;2023-06-10T11:15:31;11.85;;;10.85;;
22965;SDS011;11649;48.090;9.754;2023-06-10T11:20:54;9.35;;;8.55;;
22965;SDS011;11649;48.090;9.754;2023-06-10T11:31:28;10.02;;;9.30;;
22965;SDS011;11649;48.090;9.754;2023-06-10T11:33:57;10.40;;;9.70;;
22965;SDS011;11649;48.090;9.754;2023-06-10T11:36:26;10.60;;;9.88;;
22965;SDS011;11649;48.090;9.754;2023-06-10T11:38:55;10.23;;;9.48;;
22965;SDS011;11649;48.090;9.754;2023-06-10T11:41:24;10.27;;;9.57;;
22965;SDS011;11649;48.090;9.754;2023-06-10T11:43:53;9.75;;;8.95;;
22965;SDS011;11649;48.090;9.754;2023-06-10T11:46:22;9.88;;;9.18;;
22965;SDS011;11649;48.090;9.754;2023-06-10T11:48:51;9.73;;;9.02;;
22965;SDS011;11649;48.090;9.754;2023-06-10T11:51:18;10.20;;;9.50;;
22965;SDS011;11649;48.090;9.754;2023-06-10T11:53:46;10.05;;;9.13;;
22965;SDS011;11649;48.090;9.754;2023-06-10T11:56:21;9.35;;;8.65;;
22965;SDS011;11649;48.090;9.754;2023-06-10T11:59:07;9.10;;;8.40;;
22965;SDS011;11649;48.090;9.754;2023-06-10T12:01:35;9.20;;;8.45;;
22965;SDS011;11649;48.090;9.754;2023-06-10T12:04:15;9.27;;;8.57;;
22965;SDS011;11649;48.090;9.754;2023-06-10T12:06:44;9.02;;;8.40;;
22965;SDS011;11649;48.090;9.754;2023-06-10T12:09:17;11.00;;;8.70;;
22965;SDS011;11649;48.090;9.754;2023-06-10T12:11:49;9.02;;;8.30;;
22965;SDS011;11649;48.090;9.754;2023-06-10T12:19:50;10.60;;;9.77;;
22965;SDS011;11649;48.090;9.754;2023-06-10T12:22:17;9.85;;;9.05;;
22965;SDS011;11649;48.090;9.754;2023-06-10T12:24:56;8.90;;;8.10;;
22965;SDS011;11649;48.090;9.754;2023-06-10T12:27:29;8.88;;;8.18;;
22965;SDS011;11649;48.090;9.754;2023-06-10T12:29:57;8.20;;;7.57;;
22965;SDS011;11649;48.090;9.754;2023-06-10T12:35:07;9.60;;;8.90;;
22965;SDS011;11649;48.090;9.754;2023-06-10T12:37:37;8.73;;;8.10;;
22965;SDS011;11649;48.090;9.754;2023-06-10T12:40:08;9.68;;;8.98;;
22965;SDS011;11649;48.090;9.754;2023-06-10T12:42:36;8.27;;;7.68;;
22965;SDS011;11649;48.090;9.754;2023-06-10T12:45:04;9.13;;;8.50;;
22965;SDS011;11649;48.090;9.754;2023-06-10T12:47:34;8.98;;;8.05;;
22965;SDS011;11649;48.090;9.754;2023-06-10T12:50:05;8.98;;;8.27;;
22965;SDS011;11649;48.090;9.754;2023-06-10T12:52:33;8.52;;;7.93;;
22965;SDS011;11649;48.090;9.754;2023-06-10T12:55:00;8.68;;;7.97;;
22965;SDS011;11649;48.090;9.754;2023-06-10T12:57:27;8.65;;;7.88;;
22965;SDS011;11649;48.090;9.754;2023-06-10T12:59:54;9.65;;;8.85;;
22965;SDS011;11649;48.090;9.754;2023-06-10T13:02:26;8.68;;;7.93;;
22965;SDS011;11649;48.090;9.754;2023-06-10T13:04:54;10.15;;;9.25;;
22965;SDS011;11649;48.090;9.754;2023-06-10T13:07:21;9.35;;;8.52;;
22965;SDS011;11649;48.090;9.754;2023-06-10T13:09:49;9.98;;;9.18;;
22965;SDS011;11649;48.090;9.754;2023-06-10T13:12:15;10.57;;;9.77;;
22965;SDS011;11649;48.090;9.754;2023-06-10T13:14:55;9.60;;;8.82;;
22965;SDS011;11649;48.090;9.754;2023-06-10T13:17:22;11.45;;;10.63;;
22965;SDS011;11649;48.090;9.754;2023-06-10T13:19:49;9.48;;;8.68;;
22965;SDS011;11649;48.090;9.754;2023-06-10T13:22:16;9.48;;;8.77;;
22965;SDS011;11649;48.090;9.754;2023-06-10T13:24:45;9.70;;;9.00;;
22965;SDS011;11649;48.090;9.754;2023-06-10T13:27:12;8.43;;;7.82;;
22965;SDS011;11649;48.090;9.754;2023-06-10T13:29:42;10.52;;;9.63;;
22965;SDS011;11649;48.090;9.754;2023-06-10T13:32:09;10.38;;;9.48;;
22965;SDS011;11649;48.090;9.754;2023-06-10T13:34:35;11.40;;;10.50;;
22965;SDS011;11649;48.090;9.754;2023-06-10T13:37:02;13.95;;;12.52;;
22965;SDS011;11649;48.090;9.754;2023-06-10T13:39:31;15.50;;;14.45;;
22965;SDS011;11649;48.090;9.754;2023-06-10T13:41:57;14.68;;;13.38;;
22965;SDS011;11649;48.090;9.754;2023-06-10T13:44:24;15.77;;;14.68;;
22965;SDS011;11649;48.090;9.754;2023-06-10T13:46:51;15.40;;;14.30;;
22965;SDS011;11649;48.090;9.754;2023-06-10T13:49:18;15.15;;;13.93;;
22965;SDS011;11649;48.090;9.754;2023-06-10T13:51:45;14.98;;;13.88;;
22965;SDS011;11649;48.090;9.754;2023-06-10T13:54:12;16.30;;;15.10;;
22965;SDS011;11649;48.090;9.754;2023-06-10T13:56:41;15.25;;;14.15;;
22965;SDS011;11649;48.090;9.754;2023-06-10T13:59:08;16.75;;;15.55;;
22965;SDS011;11649;48.090;9.754;2023-06-10T14:01:35;13.50;;;12.50;;
22965;SDS011;11649;48.090;9.754;2023-06-10T14:04:02;13.02;;;11.93;;
22965;SDS011;11649;48.090;9.754;2023-06-10T14:06:29;13.85;;;12.90;;
22965;SDS011;11649;48.090;9.754;2023-06-10T14:08:57;14.27;;;13.32;;
22965;SDS011;11649;48.090;9.754;2023-06-10T14:11:23;13.60;;;12.45;;
22965;SDS011;11649;48.090;9.754;2023-06-10T14:13:50;11.27;;;10.48;;
22965;SDS011;11649;48.090;9.754;2023-06-10T14:16:17;11.02;;;9.45;;
22965;SDS011;11649;48.090;9.754;2023-06-10T14:18:44;11.80;;;10.90;;
22965;SDS011;11649;48.090;9.754;2023-06-10T14:21:11;10.80;;;9.90;;
22965;SDS011;11649;48.090;9.754;2023-06-10T14:23:38;11.13;;;10.35;;
22965;SDS011;11649;48.090;9.754;2023-06-10T14:26:05;11.65;;;10.75;;
22965;SDS011;11649;48.090;9.754;2023-06-10T14:28:33;11.95;;;11.15;;
22965;SDS011;11649;48.090;9.754;2023-06-10T14:31:00;11.52;;;10.73;;
22965;SDS011;11649;48.090;9.754;2023-06-10T14:33:27;11.73;;;10.93;;
22965;SDS011;11649;48.090;9.754;2023-06-10T14:35:54;10.30;;;9.60;;
22965;SDS011;11649;48.090;9.754;2023-06-10T14:38:20;9.77;;;9.07;;
22965;SDS011;11649;48.090;9.754;2023-06-10T14:40:47;10.18;;;9.32;;
22965;SDS011;11649;48.090;9.754;2023-06-10T14:43:14;8.60;;;7.75;;
22965;SDS011;11649;48.090;9.754;2023-06-10T14:45:41;9.27;;;8.57;;
22965;SDS011;11649;48.090;9.754;2023-06-10T14:48:08;8.95;;;8.25;;
22965;SDS011;11649;48.090;9.754;2023-06-10T14:50:35;10.23;;;9.52;;
22965;SDS011;11649;48.090;9.754;2023-06-10T14:53:02;10.32;;;9.52;;
22965;SDS011;11649;48.090;9.754;2023-06-10T14:55:29;10.40;;;9.52;;
22965;SDS011;11649;48.090;9.754;2023-06-10T14:57:55;9.63;;;8.93;;
22965;SDS011;11649;48.090;9.754;2023-06-10T15:00:24;9.85;;;9.10;;